createdAt,value
2023-03-12T00:02:16.421Z,8.18
2023-03-12T00:04:45.383Z,8.70
2023-03-12T00:07:12.915Z,11.15
2023-03-12T00:09:40.482Z,4.40
2023-03-12T00:12:09.105Z,8.10
2023-03-12T00:14:37.415Z,5.35
2023-03-12T00:17:05.059Z,5.65
2023-03-12T00:19:32.639Z,7.10
2023-03-12T00:22:01.543Z,7.90
2023-03-12T00:24:29.096Z,6.63
2023-03-12T00:26:56.657Z,5.03
2023-03-12T00:29:24.247Z,6.63
2023-03-12T00:31:52.254Z,4.55
2023-03-12T00:34:19.808Z,6.03
2023-03-12T00:36:47.333Z,5.15
2023-03-12T00:39:16.191Z,5.20
2023-03-12T00:41:43.718Z,6.93
2023-03-12T00:44:11.248Z,7.30
2023-03-12T00:46:38.803Z,6.78
2023-03-12T00:49:06.345Z,9.70
2023-03-12T00:51:34.106Z,6.35
2023-03-12T00:54:01.686Z,5.97
2023-03-12T00:56:30.586Z,7.72
2023-03-12T00:58:58.206Z,4.75
2023-03-12T01:01:27.579Z,3.63
2023-03-12T01:03:55.808Z,3.75
2023-03-12T01:06:23.407Z,7.63
2023-03-12T01:08:51.000Z,8.85
2023-03-12T01:11:20.610Z,4.75
2023-03-12T01:13:49.917Z,6.50
2023-03-12T01:16:17.503Z,5.70
2023-03-12T01:18:45.319Z,4.40
2023-03-12T01:21:12.964Z,5.03
2023-03-12T01:23:40.470Z,7.55
2023-03-12T01:26:08.131Z,7.88
2023-03-12T01:28:35.632Z,4.25
2023-03-12T01:31:09.184Z,5.00
2023-03-12T01:33:36.720Z,4.72
2023-03-12T01:36:04.564Z,4.30
2023-03-12T01:38:32.195Z,4.53
2023-03-12T01:40:59.732Z,7.68
2023-03-12T01:43:30.607Z,7.53
2023-03-12T01:46:06.887Z,5.28
2023-03-12T01:48:40.960Z,13.25
2023-03-12T01:51:11.483Z,18.67
2023-03-12T01:53:39.870Z,18.40
2023-03-12T01:56:08.994Z,18.20
2023-03-12T01:58:39.397Z,12.90
2023-03-12T02:01:07.666Z,17.13
2023-03-12T02:03:36.956Z,10.52
2023-03-12T02:06:09.762Z,9.70
2023-03-12T02:11:06.097Z,7.82
2023-03-12T02:13:34.046Z,10.10
2023-03-12T02:16:02.040Z,7.22
2023-03-12T02:18:29.962Z,6.05
2023-03-12T02:21:07.313Z,5.07
2023-03-12T02:23:41.229Z,8.23
2023-03-12T02:26:12.283Z,5.18
2023-03-12T02:28:43.940Z,5.40
2023-03-12T02:31:14.777Z,5.90
2023-03-12T02:33:42.610Z,5.60
2023-03-12T02:36:10.610Z,7.32
2023-03-12T02:38:42.320Z,6.50
2023-03-12T02:41:15.910Z,5.60
2023-03-12T02:43:47.026Z,4.88
2023-03-12T02:46:15.587Z,3.40
2023-03-12T02:48:43.181Z,4.40
2023-03-12T02:51:10.954Z,4.88
2023-03-12T02:53:38.754Z,5.20
2023-03-12T02:56:07.537Z,2.65
2023-03-12T02:58:37.441Z,3.88
2023-03-12T03:01:05.461Z,4.43
2023-03-12T03:03:32.986Z,3.58
2023-03-12T03:06:00.534Z,5.85
2023-03-12T03:08:28.036Z,2.78
2023-03-12T03:10:55.544Z,5.40
2023-03-12T03:13:23.077Z,7.05
2023-03-12T03:15:51.944Z,4.93
2023-03-12T03:18:19.458Z,4.68
2023-03-12T03:20:47.013Z,3.58
2023-03-12T03:23:14.481Z,4.40
2023-03-12T03:25:41.991Z,4.70
2023-03-12T03:28:09.529Z,6.25
2023-03-12T03:30:37.041Z,4.20
2023-03-12T03:33:06.445Z,3.58
2023-03-12T03:35:34.905Z,3.25
2023-03-12T03:38:02.697Z,2.95
2023-03-12T03:40:30.256Z,3.22
2023-03-12T03:42:57.772Z,5.03
2023-03-12T03:45:27.134Z,3.38
2023-03-12T03:47:54.691Z,3.13
2023-03-12T03:50:23.650Z,4.05
2023-03-12T03:52:51.260Z,5.10
2023-03-12T03:55:18.918Z,3.88
2023-03-12T03:57:46.450Z,3.45
2023-03-12T04:00:17.921Z,3.72
2023-03-12T04:02:45.707Z,5.20
2023-03-12T04:05:13.327Z,4.75
2023-03-12T04:07:42.365Z,7.85
2023-03-12T04:10:11.196Z,6.88
2023-03-12T04:12:38.734Z,4.43
2023-03-12T04:15:07.608Z,3.63
2023-03-12T04:17:35.145Z,3.03
2023-03-12T04:20:02.868Z,2.35
2023-03-12T04:22:30.375Z,4.60
2023-03-12T04:24:59.395Z,6.90
2023-03-12T04:27:27.200Z,6.30
2023-03-12T04:29:59.223Z,4.43
2023-03-12T04:32:30.304Z,4.03
2023-03-12T04:34:58.342Z,6.88
2023-03-12T04:37:27.111Z,2.90
2023-03-12T04:39:59.214Z,5.63
2023-03-12T04:42:29.637Z,5.38
2023-03-12T04:44:57.710Z,4.07
2023-03-12T04:47:28.027Z,4.72
2023-03-12T04:50:01.552Z,5.50
2023-03-12T04:52:29.660Z,6.05
2023-03-12T04:54:59.426Z,3.67
2023-03-12T04:57:28.493Z,6.22
2023-03-12T04:59:56.559Z,5.65
2023-03-12T05:02:27.843Z,4.28
2023-03-12T05:04:58.130Z,4.88
2023-03-12T05:07:26.959Z,4.85
2023-03-12T05:09:54.936Z,4.07
2023-03-12T05:12:23.998Z,4.55
2023-03-12T05:14:53.390Z,4.20
2023-03-12T05:17:21.054Z,2.97
2023-03-12T05:19:49.934Z,6.63
2023-03-12T05:22:20.161Z,4.65
2023-03-12T05:24:48.056Z,5.10
2023-03-12T05:27:15.782Z,5.28
2023-03-12T05:29:46.321Z,3.38
2023-03-12T05:32:16.010Z,4.75
2023-03-12T05:34:44.020Z,2.88
2023-03-12T05:37:11.685Z,3.55
2023-03-12T05:39:41.159Z,3.67
2023-03-12T05:42:08.900Z,2.65
2023-03-12T05:44:36.628Z,3.83
2023-03-12T05:47:04.418Z,5.18
2023-03-12T05:49:35.617Z,4.03
2023-03-12T05:52:06.847Z,5.30
2023-03-12T05:54:35.281Z,4.82
2023-03-12T05:57:03.425Z,3.90
2023-03-12T05:59:34.346Z,3.53
2023-03-12T06:02:02.033Z,4.75
2023-03-12T06:04:31.041Z,3.42
2023-03-12T06:07:00.631Z,5.57
2023-03-12T06:09:28.585Z,4.30
2023-03-12T06:11:56.425Z,9.52
2023-03-12T06:14:24.310Z,5.07
2023-03-12T06:16:56.129Z,5.45
2023-03-12T06:19:24.502Z,3.30
2023-03-12T06:21:52.462Z,4.65
2023-03-12T06:24:30.038Z,4.90
2023-03-12T06:27:17.713Z,6.35
2023-03-12T06:29:49.499Z,5.95
2023-03-12T06:32:20.469Z,4.07
2023-03-12T06:34:48.816Z,4.97
2023-03-12T06:37:19.554Z,4.28
2023-03-12T06:39:52.479Z,3.38
2023-03-12T06:42:20.826Z,8.05
2023-03-12T06:44:49.196Z,5.57
2023-03-12T06:47:30.694Z,8.90
2023-03-12T06:49:58.570Z,6.78
2023-03-12T06:52:32.875Z,5.60
2023-03-12T06:55:36.845Z,9.27
2023-03-12T06:58:15.142Z,8.55
2023-03-12T07:00:45.131Z,6.55
2023-03-12T07:08:34.562Z,6.85
2023-03-12T07:11:03.998Z,4.22
2023-03-12T07:13:37.727Z,6.28
2023-03-12T07:16:06.429Z,5.85
2023-03-12T07:18:34.396Z,8.77
2023-03-12T07:21:24.682Z,6.22
2023-03-12T07:23:53.783Z,5.57
2023-03-12T07:26:23.077Z,5.57
2023-03-12T07:28:58.986Z,5.07
2023-03-12T07:31:34.800Z,7.70
2023-03-12T07:34:06.282Z,6.05
2023-03-12T07:36:34.872Z,5.70
2023-03-12T07:39:03.089Z,8.07
2023-03-12T07:41:32.848Z,8.18
2023-03-12T07:44:00.716Z,4.78
2023-03-12T07:46:28.581Z,6.05
2023-03-12T07:48:56.411Z,6.80
2023-03-12T07:51:28.289Z,9.40
2023-03-12T07:53:57.303Z,6.47
2023-03-12T07:56:25.190Z,6.70
2023-03-12T07:58:57.661Z,6.25
2023-03-12T08:01:32.226Z,9.15
2023-03-12T08:04:00.728Z,7.88
2023-03-12T08:06:28.970Z,6.53
2023-03-12T08:08:58.640Z,8.20
2023-03-12T08:11:36.037Z,8.65
2023-03-12T08:14:14.918Z,8.38
2023-03-12T08:16:47.718Z,7.93
2023-03-12T08:19:15.533Z,8.93
2023-03-12T08:21:51.259Z,8.88
2023-03-12T08:24:22.479Z,9.23
2023-03-12T08:26:50.788Z,8.40
2023-03-12T08:29:20.408Z,11.15
2023-03-12T08:32:03.758Z,8.02
2023-03-12T08:34:32.321Z,10.60
2023-03-12T08:37:00.006Z,5.93
2023-03-12T08:39:27.772Z,8.15
2023-03-12T08:41:55.730Z,8.50
2023-03-12T08:44:26.295Z,7.05
2023-03-12T08:46:58.010Z,11.07
2023-03-12T08:49:42.913Z,11.10
2023-03-12T08:52:10.934Z,11.65
2023-03-12T08:54:42.749Z,12.15
2023-03-12T08:57:18.153Z,12.18
2023-03-12T09:00:02.077Z,12.25
2023-03-12T09:02:43.681Z,14.10
2023-03-12T09:20:54.289Z,12.65
2023-03-12T09:35:12.274Z,14.98
2023-03-12T09:41:26.786Z,15.68
2023-03-12T09:44:18.291Z,13.93
2023-03-12T09:56:55.935Z,13.55
2023-03-12T10:10:44.990Z,12.15
2023-03-12T10:14:08.597Z,16.70
2023-03-12T10:29:21.519Z,13.93
2023-03-12T10:31:56.068Z,17.92
2023-03-12T10:34:29.640Z,13.25
2023-03-12T10:37:01.598Z,13.27
2023-03-12T10:39:29.477Z,16.95
2023-03-12T10:42:00.983Z,15.70
2023-03-12T10:44:30.508Z,16.17
2023-03-12T10:47:07.881Z,14.10
2023-03-12T10:49:37.092Z,16.27
2023-03-12T10:52:07.715Z,16.63
2023-03-12T10:54:37.519Z,17.10
2023-03-12T10:57:05.658Z,18.42
2023-03-12T10:59:36.804Z,14.98
2023-03-12T11:02:26.167Z,16.73
2023-03-12T11:04:54.535Z,13.77
2023-03-12T11:07:28.738Z,14.77
2023-03-12T11:10:22.182Z,15.80
2023-03-12T11:12:56.043Z,14.30
2023-03-12T11:15:28.116Z,17.50
2023-03-12T11:18:20.497Z,14.57
2023-03-12T11:20:50.123Z,12.97
2023-03-12T11:23:21.049Z,12.75
2023-03-12T11:25:56.510Z,13.40
2023-03-12T11:28:28.411Z,11.68
2023-03-12T11:30:59.263Z,9.93
2023-03-12T11:33:27.036Z,10.10
2023-03-12T11:36:09.094Z,6.85
2023-03-12T11:38:42.414Z,6.87
2023-03-12T11:41:24.940Z,6.95
2023-03-12T11:44:08.808Z,5.15
2023-03-12T11:46:51.502Z,5.60
2023-03-12T11:49:33.408Z,5.85
2023-03-12T11:52:05.666Z,6.30
2023-03-12T11:54:59.742Z,5.22
2023-03-12T11:57:36.531Z,5.85
2023-03-12T12:00:13.491Z,6.13
2023-03-12T12:03:08.957Z,4.70
2023-03-12T12:05:49.841Z,6.38
2023-03-12T12:08:32.971Z,9.18
2023-03-12T12:11:06.435Z,8.10
2023-03-12T12:13:43.466Z,5.47
2023-03-12T12:16:24.633Z,5.30
2023-03-12T12:19:04.529Z,6.78
2023-03-12T12:21:53.700Z,5.47
2023-03-12T12:24:36.260Z,5.22
2023-03-12T12:27:16.099Z,5.05
2023-03-12T12:30:11.658Z,7.45
2023-03-12T12:33:01.084Z,5.32
2023-03-12T12:35:36.542Z,4.13
2023-03-12T12:38:10.264Z,4.72
2023-03-12T12:40:42.128Z,4.90
2023-03-12T12:43:28.070Z,5.82
2023-03-12T12:45:59.033Z,7.30
2023-03-12T12:48:32.523Z,3.88
2023-03-12T12:51:04.212Z,9.25
2023-03-12T12:53:41.917Z,4.38
2023-03-12T12:56:19.344Z,5.60
2023-03-12T12:59:04.049Z,4.50
2023-03-12T13:01:32.341Z,4.60
2023-03-12T13:04:05.527Z,4.22
2023-03-12T13:07:03.458Z,3.47
2023-03-12T13:09:38.419Z,5.57
2023-03-12T13:12:28.559Z,6.97
2023-03-12T13:14:58.300Z,5.53
2023-03-12T13:17:31.693Z,5.65
2023-03-12T13:20:15.377Z,5.97
2023-03-12T13:23:04.463Z,4.72
2023-03-12T13:25:47.550Z,6.07
2023-03-12T13:28:35.843Z,3.47
2023-03-12T13:31:25.794Z,3.15
2023-03-12T13:33:57.504Z,3.65
2023-03-12T13:36:28.490Z,3.35
2023-03-12T13:39:02.585Z,2.10
2023-03-12T13:41:36.846Z,2.63
2023-03-12T13:44:33.018Z,3.63
2023-03-12T13:47:02.501Z,3.40
2023-03-12T13:49:38.008Z,3.33
2023-03-12T13:52:23.406Z,3.17
2023-03-12T13:55:01.881Z,3.60
2023-03-12T13:57:41.151Z,2.58
2023-03-12T14:00:18.243Z,3.25
2023-03-12T14:02:50.733Z,2.40
2023-03-12T14:05:20.685Z,2.38
2023-03-12T14:08:04.926Z,2.53
2023-03-12T14:10:46.464Z,2.53
2023-03-12T14:13:29.712Z,3.60
2023-03-12T14:16:06.080Z,3.15
2023-03-12T14:18:40.044Z,3.42
2023-03-12T14:21:10.797Z,5.00
2023-03-12T14:23:41.815Z,2.75
2023-03-12T14:26:20.548Z,2.38
2023-03-12T14:28:58.754Z,4.15
2023-03-12T14:31:26.971Z,5.03
2023-03-12T14:33:59.693Z,2.33
2023-03-12T14:39:01.949Z,2.88
2023-03-12T14:41:36.580Z,4.28
2023-03-12T14:44:06.562Z,4.57
2023-03-12T14:46:34.201Z,2.95
2023-03-12T14:49:01.913Z,2.83
2023-03-12T14:51:31.953Z,3.67
2023-03-12T14:54:05.009Z,4.72
2023-03-12T14:56:36.016Z,5.07
2023-03-12T14:59:22.581Z,2.38
2023-03-12T15:01:50.261Z,2.45
2023-03-12T15:04:20.541Z,2.63
2023-03-12T15:06:50.815Z,5.65
2023-03-12T15:09:22.095Z,2.42
2023-03-12T15:11:56.508Z,4.38
2023-03-12T15:14:25.903Z,2.00
2023-03-12T15:16:53.880Z,3.05
2023-03-12T15:19:24.250Z,3.20
2023-03-12T15:21:52.065Z,5.53
2023-03-12T15:24:19.747Z,4.57
2023-03-12T15:26:47.404Z,7.22
2023-03-12T15:29:27.326Z,4.85
2023-03-12T15:31:57.016Z,6.50
2023-03-12T15:34:32.267Z,7.50
2023-03-12T15:37:01.610Z,4.47
2023-03-12T15:39:32.498Z,4.32
2023-03-12T15:42:03.566Z,4.93
2023-03-12T15:44:43.909Z,5.03
2023-03-12T15:47:15.111Z,2.60
2023-03-12T15:49:43.242Z,2.08
2023-03-12T15:52:29.168Z,5.65
2023-03-12T15:55:20.467Z,2.95
2023-03-12T15:57:49.876Z,2.25
2023-03-12T16:00:25.976Z,5.72
2023-03-12T16:02:56.651Z,4.70
2023-03-12T16:05:28.151Z,3.47
2023-03-12T16:07:56.167Z,1.75
2023-03-12T16:10:26.774Z,4.03
2023-03-12T16:13:02.222Z,4.07
2023-03-12T16:15:34.411Z,4.40
2023-03-12T16:18:02.094Z,2.97
2023-03-12T16:20:30.073Z,3.40
2023-03-12T16:22:57.919Z,3.50
2023-03-12T16:25:25.771Z,3.92
2023-03-12T16:27:56.277Z,3.35
2023-03-12T16:30:27.143Z,4.13
2023-03-12T16:32:56.382Z,4.93
2023-03-12T16:35:24.238Z,9.43
2023-03-12T16:37:51.878Z,4.47
2023-03-12T16:40:32.569Z,4.18
2023-03-12T16:43:02.771Z,3.63
2023-03-12T16:45:31.874Z,3.67
2023-03-12T16:48:02.615Z,7.72
2023-03-12T16:50:30.899Z,3.88
2023-03-12T16:52:59.764Z,8.07
2023-03-12T16:55:30.542Z,6.53
2023-03-12T16:58:01.746Z,5.50
2023-03-12T17:00:31.485Z,7.97
2023-03-12T17:03:01.033Z,5.53
2023-03-12T17:05:30.719Z,5.32
2023-03-12T17:07:59.359Z,4.15
2023-03-12T17:10:27.286Z,4.38
2023-03-12T17:12:56.801Z,5.30
2023-03-12T17:15:27.526Z,5.95
2023-03-12T17:17:56.814Z,4.80
2023-03-12T17:20:25.900Z,4.72
2023-03-12T17:22:53.761Z,5.88
2023-03-12T17:25:23.469Z,6.45
2023-03-12T17:27:51.560Z,8.07
2023-03-12T17:30:19.269Z,8.15
2023-03-12T17:32:47.250Z,9.35
2023-03-12T17:35:14.926Z,7.47
2023-03-12T17:44:00.186Z,6.87
2023-03-12T18:39:09.727Z,9.90
2023-03-12T18:41:41.468Z,7.57
2023-03-12T18:44:14.898Z,7.60
2023-03-12T19:00:33.136Z,13.13
2023-03-12T19:05:44.697Z,10.95
2023-03-12T19:08:14.265Z,8.75
2023-03-12T19:10:49.461Z,4.95
2023-03-12T19:16:29.585Z,7.05
2023-03-12T19:19:08.274Z,8.05
2023-03-12T19:21:37.411Z,7.68
2023-03-12T19:24:19.810Z,7.20
2023-03-12T19:26:53.296Z,8.60
2023-03-12T19:29:22.013Z,4.25
2023-03-12T19:31:51.756Z,9.48
2023-03-12T19:34:26.429Z,6.43
2023-03-12T19:40:15.827Z,8.95
2023-03-12T19:43:04.234Z,7.35
2023-03-12T19:45:42.599Z,8.93
2023-03-12T19:48:30.060Z,6.85
2023-03-12T19:50:59.087Z,6.63
2023-03-12T20:02:06.783Z,5.53
2023-03-12T20:07:19.621Z,10.13
2023-03-12T20:51:07.727Z,9.43
2023-03-12T21:23:18.285Z,5.88
2023-03-12T21:26:57.402Z,9.23
2023-03-12T21:30:34.554Z,8.45
2023-03-12T21:34:36.579Z,8.07
2023-03-12T21:37:30.196Z,9.75
2023-03-12T21:43:27.640Z,7.22
2023-03-12T22:42:13.767Z,9.30
2023-03-12T22:44:42.144Z,6.72
2023-03-12T22:47:10.222Z,7.63
2023-03-12T22:49:38.060Z,5.93
2023-03-12T22:52:06.393Z,10.82
2023-03-12T22:54:35.022Z,10.02
2023-03-12T22:57:02.641Z,14.00
2023-03-12T22:59:31.948Z,9.90
2023-03-12T23:01:59.725Z,9.07
2023-03-12T23:04:27.456Z,7.75
2023-03-12T23:07:04.432Z,9.57
2023-03-12T23:09:39.156Z,7.80
2023-03-12T23:12:07.332Z,8.57
2023-03-12T23:14:36.488Z,10.13
2023-03-12T23:17:04.205Z,10.05
2023-03-12T23:19:33.182Z,6.03
2023-03-12T23:22:01.189Z,7.10
2023-03-12T23:24:30.971Z,11.63
2023-03-12T23:26:58.743Z,11.10
2023-03-12T23:29:26.916Z,8.85
2023-03-12T23:31:56.176Z,8.43
2023-03-12T23:34:24.014Z,10.00
2023-03-12T23:36:51.812Z,7.22
2023-03-12T23:39:20.030Z,8.60
2023-03-12T23:41:47.896Z,9.80
2023-03-12T23:44:15.608Z,11.13
2023-03-12T23:46:44.919Z,12.15
2023-03-12T23:49:14.125Z,8.15
2023-03-12T23:51:41.913Z,8.85
2023-03-12T23:54:09.722Z,12.05
2023-03-12T23:56:39.077Z,9.00
2023-03-12T23:59:08.330Z,8.73
